createdAt,value
2023-04-10T00:00:36.304Z,101.60
2023-04-10T00:01:41.982Z,95.10
2023-04-10T00:02:50.309Z,94.88
2023-04-10T00:03:54.665Z,120.13
2023-04-10T00:05:01.732Z,124.85
2023-04-10T00:06:08.102Z,109.82
2023-04-10T00:07:17.569Z,102.32
2023-04-10T00:08:25.087Z,95.13
2023-04-10T00:09:32.406Z,124.60
2023-04-10T00:10:36.863Z,115.25
2023-04-10T00:11:43.287Z,105.40
2023-04-10T00:12:47.322Z,111.40
2023-04-10T00:13:56.266Z,127.57
2023-04-10T00:14:59.867Z,106.07
2023-04-10T00:16:16.577Z,119.40
2023-04-10T00:17:20.178Z,85.97
2023-04-10T00:18:32.050Z,109.28
2023-04-10T00:19:35.552Z,108.22
2023-04-10T00:20:44.925Z,110.05
2023-04-10T00:21:51.718Z,100.35
2023-04-10T00:23:06.815Z,114.18
2023-04-10T00:24:16.491Z,122.60
2023-04-10T00:25:23.743Z,106.80
2023-04-10T00:26:32.332Z,105.50
2023-04-10T00:27:44.827Z,103.00
2023-04-10T00:28:48.391Z,100.53
2023-04-10T00:30:03.224Z,118.32
2023-04-10T00:31:13.164Z,115.38
2023-04-10T00:32:18.530Z,99.38
2023-04-10T00:33:32.073Z,102.53
2023-04-10T00:34:38.252Z,109.47
2023-04-10T00:35:50.508Z,122.97
2023-04-10T00:36:57.670Z,125.97
2023-04-10T00:38:07.420Z,155.23
2023-04-10T00:39:13.524Z,128.13
2023-04-10T00:40:20.083Z,110.60
2023-04-10T00:41:25.798Z,121.82
2023-04-10T00:42:34.515Z,85.90
2023-04-10T00:43:37.837Z,106.82
2023-04-10T00:44:47.102Z,103.85
2023-04-10T00:45:59.229Z,115.75
2023-04-10T00:47:10.398Z,134.10
2023-04-10T00:48:14.627Z,135.40
2023-04-10T00:49:25.548Z,109.80
2023-04-10T00:50:28.780Z,163.07
2023-04-10T00:51:38.433Z,104.15
2023-04-10T00:52:41.849Z,131.38
2023-04-10T00:53:48.262Z,137.98
2023-04-10T00:54:56.176Z,126.28
2023-04-10T00:56:04.299Z,139.25
2023-04-10T00:57:14.086Z,132.45
2023-04-10T00:58:17.901Z,97.97
2023-04-10T00:59:30.139Z,121.90
2023-04-10T01:00:44.733Z,111.03
2023-04-10T01:01:59.214Z,106.80
2023-04-10T01:03:06.655Z,109.82
2023-04-10T01:04:17.578Z,113.38
2023-04-10T01:05:24.450Z,111.22
2023-04-10T01:06:44.389Z,146.98
2023-04-10T01:08:15.799Z,111.97
2023-04-10T01:09:35.972Z,101.03
2023-04-10T01:10:52.041Z,98.60
2023-04-10T01:12:05.641Z,117.38
2023-04-10T01:13:20.803Z,103.85
2023-04-10T01:14:40.681Z,98.80
2023-04-10T01:15:53.948Z,138.95
2023-04-10T01:17:13.729Z,99.40
2023-04-10T01:18:27.552Z,103.65
2023-04-10T01:19:49.667Z,111.25
2023-04-10T01:20:59.815Z,114.93
2023-04-10T01:22:05.315Z,122.13
2023-04-10T01:23:32.987Z,115.57
2023-04-10T01:25:06.317Z,100.28
2023-04-10T01:26:17.483Z,146.98
2023-04-10T01:27:42.389Z,86.22
2023-04-10T01:29:16.939Z,94.00
2023-04-10T01:30:24.245Z,104.00
2023-04-10T01:31:44.745Z,111.50
2023-04-10T01:32:51.513Z,167.48
2023-04-10T01:34:02.539Z,102.43
2023-04-10T01:35:09.334Z,102.30
2023-04-10T01:36:16.905Z,118.82
2023-04-10T01:37:26.019Z,87.97
2023-04-10T01:38:33.994Z,108.57
2023-04-10T01:39:46.105Z,86.65
2023-04-10T01:40:59.136Z,69.50
2023-04-10T01:42:07.492Z,129.18
2023-04-10T01:43:17.359Z,121.30
2023-04-10T01:44:32.984Z,113.07
2023-04-10T01:45:39.612Z,115.32
2023-04-10T01:46:55.249Z,94.72
2023-04-10T01:47:59.174Z,119.93
2023-04-10T01:49:10.788Z,102.50
2023-04-10T01:50:17.335Z,102.80
2023-04-10T01:51:27.024Z,105.10
2023-04-10T01:52:37.677Z,114.03
2023-04-10T01:53:45.151Z,118.78
2023-04-10T01:54:50.550Z,125.55
2023-04-10T01:55:58.888Z,106.93
2023-04-10T01:57:04.616Z,115.40
2023-04-10T01:58:25.894Z,118.30
2023-04-10T01:59:34.513Z,100.32
2023-04-10T02:00:43.909Z,126.32
2023-04-10T02:02:08.932Z,99.93
2023-04-10T02:03:17.835Z,117.40
2023-04-10T02:04:24.791Z,103.13
2023-04-10T02:05:37.125Z,112.25
2023-04-10T02:06:55.189Z,74.07
2023-04-10T02:08:10.659Z,87.70
2023-04-10T02:09:35.368Z,105.93
2023-04-10T02:10:57.269Z,103.45
2023-04-10T02:13:17.133Z,109.82
2023-04-10T02:14:28.896Z,98.13
2023-04-10T02:15:38.030Z,107.68
2023-04-10T02:16:50.052Z,117.63
2023-04-10T02:17:54.971Z,98.93
2023-04-10T02:19:05.084Z,112.65
2023-04-10T02:20:10.175Z,104.78
2023-04-10T02:21:23.726Z,119.28
2023-04-10T02:22:36.881Z,100.95
2023-04-10T02:23:49.322Z,115.13
2023-04-10T02:25:03.900Z,81.70
2023-04-10T02:26:11.922Z,114.57
2023-04-10T02:27:16.677Z,139.68
2023-04-10T02:28:28.138Z,107.25
2023-04-10T02:29:32.790Z,98.55
2023-04-10T02:30:43.998Z,95.13
2023-04-10T02:31:53.582Z,88.68
2023-04-10T02:33:02.591Z,106.78
2023-04-10T02:34:08.149Z,111.30
2023-04-10T02:35:24.367Z,111.35
2023-04-10T02:36:30.972Z,76.25
2023-04-10T02:37:48.306Z,104.60
2023-04-10T02:38:54.177Z,112.32
2023-04-10T02:40:04.176Z,117.13
2023-04-10T02:41:08.501Z,109.60
2023-04-10T02:42:23.473Z,196.13
2023-04-10T02:43:26.853Z,88.00
2023-04-10T02:44:36.440Z,112.40
2023-04-10T02:45:48.056Z,74.97
2023-04-10T02:48:07.451Z,155.77
2023-04-10T02:49:16.552Z,90.50
2023-04-10T02:50:20.197Z,112.60
2023-04-10T02:51:34.032Z,152.85
2023-04-10T02:52:41.763Z,163.20
2023-04-10T02:53:48.486Z,144.05
2023-04-10T02:54:58.660Z,173.27
2023-04-10T02:56:08.345Z,155.88
2023-04-10T02:57:12.995Z,159.38
2023-04-10T02:58:23.186Z,144.95
2023-04-10T03:03:11.336Z,164.10
2023-04-10T03:04:18.896Z,117.15
2023-04-10T03:05:29.510Z,98.57
2023-04-10T03:06:33.258Z,115.47
2023-04-10T03:07:39.988Z,84.70
2023-04-10T03:08:43.721Z,105.72
2023-04-10T03:09:51.212Z,98.75
2023-04-10T03:10:56.056Z,105.63
2023-04-10T03:12:05.362Z,122.20
2023-04-10T03:13:10.763Z,105.68
2023-04-10T03:14:23.886Z,101.43
2023-04-10T03:15:31.549Z,96.05
2023-04-10T03:16:39.353Z,91.32
2023-04-10T03:17:54.538Z,101.60
2023-04-10T03:19:04.957Z,102.13
2023-04-10T03:20:10.344Z,105.72
2023-04-10T03:21:22.901Z,99.95
2023-04-10T03:22:28.631Z,96.10
2023-04-10T03:23:38.190Z,90.18
2023-04-10T03:24:42.283Z,93.13
2023-04-10T03:25:55.429Z,94.55
2023-04-10T03:27:04.611Z,86.53
2023-04-10T03:28:10.730Z,87.93
2023-04-10T03:29:19.648Z,102.13
2023-04-10T03:30:28.596Z,87.97
2023-04-10T03:31:38.126Z,102.03
2023-04-10T03:32:55.230Z,99.55
2023-04-10T03:34:02.980Z,92.95
2023-04-10T03:35:15.210Z,94.13
2023-04-10T03:36:21.585Z,108.65
2023-04-10T03:37:28.784Z,77.38
2023-04-10T03:38:44.997Z,97.97
2023-04-10T03:39:54.063Z,103.65
2023-04-10T03:41:00.069Z,96.80
2023-04-10T03:42:04.146Z,90.05
2023-04-10T03:43:12.569Z,105.13
2023-04-10T03:45:31.849Z,97.22
2023-04-10T03:46:36.583Z,140.60
2023-04-10T03:47:44.249Z,118.75
2023-04-10T03:48:48.943Z,118.57
2023-04-10T04:12:14.824Z,155.18
2023-04-10T04:13:21.882Z,127.53
2023-04-10T04:14:30.192Z,133.02
2023-04-10T04:15:38.196Z,152.32
2023-04-10T04:16:43.522Z,159.25
2023-04-10T04:17:51.236Z,172.40
2023-04-10T04:18:55.872Z,167.70
2023-04-10T04:20:04.314Z,156.00
2023-04-10T04:21:09.442Z,164.70
2023-04-10T04:22:21.024Z,182.40
2023-04-10T04:24:37.172Z,146.50
2023-04-10T04:25:40.981Z,153.40
2023-04-10T04:26:50.630Z,135.02
2023-04-10T04:27:57.193Z,157.95
2023-04-10T04:29:10.604Z,174.65
2023-04-10T04:30:16.419Z,177.02
2023-04-10T04:31:23.779Z,157.93
2023-04-10T04:32:29.381Z,147.90
2023-04-10T04:33:38.685Z,142.95
2023-04-10T04:34:42.914Z,137.48
2023-04-10T04:35:53.093Z,119.47
2023-04-10T04:37:00.543Z,149.65
2023-04-10T04:38:07.191Z,134.80
2023-04-10T04:39:10.980Z,154.63
2023-04-10T04:40:24.731Z,131.32
2023-04-10T04:41:31.358Z,132.75
2023-04-10T04:42:39.993Z,131.07
2023-04-10T04:43:48.594Z,134.73
2023-04-10T04:44:55.853Z,135.93
2023-04-10T04:46:00.802Z,161.00
2023-04-10T04:47:11.146Z,146.98
2023-04-10T04:48:15.904Z,148.68
2023-04-10T04:49:22.058Z,143.30
2023-04-10T04:50:25.653Z,128.65
2023-04-10T04:51:34.108Z,141.80
2023-04-10T04:52:37.996Z,121.18
2023-04-10T04:53:44.487Z,116.57
2023-04-10T04:54:48.144Z,148.77
2023-04-10T04:55:55.465Z,107.90
2023-04-10T04:56:59.447Z,133.85
2023-04-10T04:58:07.158Z,126.53
2023-04-10T04:59:14.259Z,116.65
2023-04-10T05:00:20.930Z,136.90
2023-04-10T05:01:25.421Z,128.23
2023-04-10T05:02:33.220Z,125.25
2023-04-10T05:03:37.893Z,131.13
2023-04-10T05:04:44.454Z,112.90
2023-04-10T05:05:49.017Z,129.07
2023-04-10T05:06:58.040Z,122.15
2023-04-10T05:08:01.248Z,133.00
2023-04-10T05:09:09.020Z,126.53
2023-04-10T05:10:14.313Z,121.88
2023-04-10T05:11:21.994Z,136.93
2023-04-10T05:12:26.390Z,132.85
2023-04-10T05:13:33.369Z,127.75
2023-04-10T05:14:40.049Z,119.72
2023-04-10T05:15:46.486Z,120.60
2023-04-10T05:16:50.430Z,118.55
2023-04-10T05:17:58.693Z,120.85
2023-04-10T05:19:03.154Z,119.57
2023-04-10T05:20:14.842Z,114.28
2023-04-10T05:21:19.030Z,124.13
2023-04-10T05:22:28.306Z,134.52
2023-04-10T05:23:32.094Z,112.20
2023-04-10T05:24:39.175Z,119.78
2023-04-10T05:25:43.999Z,118.30
2023-04-10T05:26:50.605Z,119.05
2023-04-10T05:27:54.814Z,122.15
2023-04-10T05:29:01.032Z,112.70
2023-04-10T05:30:09.337Z,119.07
2023-04-10T05:31:17.941Z,103.55
2023-04-10T05:32:21.981Z,123.43
2023-04-10T05:33:28.827Z,117.30
2023-04-10T05:34:32.666Z,111.93
2023-04-10T05:35:41.870Z,106.57
2023-04-10T05:36:45.553Z,130.82
2023-04-10T05:37:52.084Z,111.07
2023-04-10T05:38:56.191Z,97.82
2023-04-10T05:40:07.986Z,106.18
2023-04-10T05:41:16.035Z,108.57
2023-04-10T05:42:21.501Z,113.88
2023-04-10T05:43:31.343Z,114.10
2023-04-10T05:44:38.336Z,99.00
2023-04-10T05:45:45.416Z,104.22
2023-04-10T05:46:52.207Z,128.68
2023-04-10T05:47:58.884Z,130.40
2023-04-10T05:49:03.200Z,142.05
2023-04-10T05:50:10.652Z,149.05
2023-04-10T05:51:17.217Z,138.15
2023-04-10T05:52:23.847Z,166.57
2023-04-10T05:53:32.303Z,145.38
2023-04-10T05:54:42.107Z,121.28
2023-04-10T05:55:57.842Z,121.65
2023-04-10T05:57:02.787Z,133.88
2023-04-10T05:58:09.488Z,125.60
2023-04-10T05:59:14.061Z,127.95
2023-04-10T06:00:22.072Z,144.88
2023-04-10T06:01:31.985Z,155.10
2023-04-10T06:02:36.640Z,131.70
2023-04-10T06:03:45.712Z,138.00
2023-04-10T06:04:50.701Z,143.23
2023-04-10T06:05:57.721Z,131.25
2023-04-10T06:07:04.085Z,129.73
2023-04-10T06:08:08.167Z,127.40
2023-04-10T06:09:16.924Z,137.35
2023-04-10T06:10:21.938Z,149.60
2023-04-10T06:11:31.549Z,138.13
2023-04-10T06:12:37.913Z,148.60
2023-04-10T06:13:45.294Z,138.63
2023-04-10T06:14:50.089Z,140.18
2023-04-10T06:15:57.499Z,144.15
2023-04-10T06:17:04.005Z,162.10
2023-04-10T06:18:10.509Z,136.32
2023-04-10T06:19:15.140Z,157.18
2023-04-10T06:20:23.111Z,190.32
2023-04-10T06:21:27.736Z,158.90
2023-04-10T06:22:37.408Z,160.02
2023-04-10T06:23:41.771Z,155.05
2023-04-10T06:24:48.718Z,139.43
2023-04-10T06:25:57.647Z,150.07
2023-04-10T06:27:04.038Z,165.98
2023-04-10T06:28:08.856Z,172.75
2023-04-10T06:29:17.656Z,177.15
2023-04-10T06:30:22.086Z,195.60
2023-04-10T06:31:29.475Z,189.70
2023-04-10T06:32:39.761Z,186.20
2023-04-10T06:33:46.207Z,188.52
2023-04-10T06:34:56.088Z,191.23
2023-04-10T06:36:05.661Z,208.18
2023-04-10T06:37:11.580Z,215.35
2023-04-10T06:38:18.855Z,187.98
2023-04-10T06:39:23.951Z,201.85
2023-04-10T06:40:34.996Z,202.70
2023-04-10T06:41:42.749Z,228.18
2023-04-10T06:42:49.168Z,199.18
2023-04-10T06:43:59.993Z,194.88
2023-04-10T06:45:14.299Z,197.65
2023-04-10T06:46:21.295Z,214.75
2023-04-10T06:47:26.512Z,229.75
2023-04-10T06:48:37.767Z,204.68
2023-04-10T06:49:42.589Z,212.55
2023-04-10T06:50:51.772Z,210.45
2023-04-10T06:51:59.352Z,214.68
2023-04-10T06:53:04.298Z,187.95
2023-04-10T06:54:11.702Z,181.50
2023-04-10T06:55:15.681Z,188.32
2023-04-10T06:56:22.864Z,252.05
2023-04-10T06:57:26.886Z,236.32
2023-04-10T06:58:35.242Z,232.57
2023-04-10T06:59:39.549Z,198.88
2023-04-10T07:00:47.142Z,204.93
2023-04-10T07:01:53.526Z,197.23
2023-04-10T07:02:57.454Z,196.55
2023-04-10T07:04:07.978Z,206.48
2023-04-10T07:05:12.698Z,204.20
2023-04-10T07:06:22.974Z,187.43
2023-04-10T07:07:27.295Z,224.77
2023-04-10T07:08:37.975Z,255.45
2023-04-10T07:09:45.140Z,227.98
2023-04-10T07:10:53.733Z,216.60
2023-04-10T07:11:57.155Z,178.68
2023-04-10T07:13:03.773Z,228.10
2023-04-10T07:14:09.261Z,196.52
2023-04-10T07:15:15.727Z,211.13
2023-04-10T07:16:20.687Z,209.15
2023-04-10T07:17:25.772Z,224.57
2023-04-10T07:18:31.059Z,229.15
2023-04-10T07:19:38.765Z,217.90
2023-04-10T07:20:50.565Z,205.40
2023-04-10T07:21:57.430Z,206.70
2023-04-10T07:23:04.608Z,193.50
2023-04-10T07:24:07.811Z,201.93
2023-04-10T07:25:14.698Z,205.32
2023-04-10T07:26:17.391Z,200.82
2023-04-10T07:27:25.030Z,188.65
2023-04-10T07:28:28.470Z,223.02
2023-04-10T07:29:34.952Z,235.27
2023-04-10T07:30:41.556Z,201.48
2023-04-10T07:31:49.071Z,204.77
2023-04-10T07:32:55.951Z,199.07
2023-04-10T07:33:59.618Z,201.05
2023-04-10T07:35:07.896Z,211.73
2023-04-10T07:36:11.832Z,199.35
2023-04-10T07:37:19.199Z,199.98
2023-04-10T07:38:28.742Z,187.80
2023-04-10T07:39:35.603Z,187.02
2023-04-10T07:40:43.068Z,167.23
2023-04-10T07:41:47.687Z,153.70
2023-04-10T07:42:57.263Z,171.15
2023-04-10T07:44:23.968Z,162.07
2023-04-10T07:45:44.574Z,147.63
2023-04-10T07:46:59.736Z,169.90
2023-04-10T07:48:08.717Z,228.95
2023-04-10T07:49:22.148Z,164.50
2023-04-10T07:50:28.756Z,211.93
2023-04-10T07:51:34.594Z,203.85
2023-04-10T07:52:38.670Z,178.30
2023-04-10T07:53:46.332Z,176.40
2023-04-10T07:54:53.708Z,205.15
2023-04-10T07:55:57.009Z,211.00
2023-04-10T07:57:04.715Z,208.50
2023-04-10T07:58:08.790Z,218.45
2023-04-10T07:59:18.967Z,235.02
2023-04-10T08:00:28.981Z,245.70
2023-04-10T08:01:33.092Z,272.95
2023-04-10T08:02:42.339Z,286.15
2023-04-10T08:03:57.216Z,238.40
2023-04-10T08:05:08.505Z,236.35
2023-04-10T08:06:16.285Z,246.95
2023-04-10T08:07:28.190Z,232.43
2023-04-10T08:08:32.674Z,257.10
2023-04-10T08:09:41.559Z,255.77
2023-04-10T08:10:46.669Z,245.50
2023-04-10T08:11:53.350Z,235.57
2023-04-10T08:13:03.404Z,226.50
2023-04-10T08:14:10.795Z,271.00
2023-04-10T08:15:14.867Z,291.73
2023-04-10T08:16:24.085Z,255.82
2023-04-10T08:17:28.118Z,292.45
2023-04-10T08:18:35.944Z,280.40
2023-04-10T08:19:56.949Z,270.48
2023-04-10T08:21:04.538Z,271.23
2023-04-10T08:22:16.974Z,259.40
2023-04-10T08:23:23.600Z,258.90
2023-04-10T08:24:31.738Z,283.95
2023-04-10T08:25:35.572Z,252.95
2023-04-10T08:26:42.157Z,283.33
2023-04-10T08:27:48.729Z,260.17
2023-04-10T08:28:57.652Z,242.82
2023-04-10T08:30:04.530Z,238.43
2023-04-10T08:31:09.811Z,246.27
2023-04-10T08:32:16.207Z,236.13
2023-04-10T08:33:25.284Z,255.65
2023-04-10T08:34:31.177Z,281.40
2023-04-10T08:35:38.018Z,277.05
2023-04-10T08:36:43.777Z,285.77
2023-04-10T08:38:07.793Z,287.23
2023-04-10T08:39:15.963Z,275.45
2023-04-10T08:40:19.048Z,278.65
2023-04-10T08:41:25.202Z,278.05
2023-04-10T08:42:30.282Z,326.55
2023-04-10T08:43:36.825Z,307.58
2023-04-10T08:44:42.485Z,320.65
2023-04-10T08:45:50.203Z,142.02
2023-04-10T08:46:56.539Z,142.40
2023-04-10T08:48:09.753Z,139.57
2023-04-10T08:49:28.966Z,147.02
2023-04-10T08:50:34.629Z,160.48
2023-04-10T08:51:42.869Z,185.75
2023-04-10T08:52:52.100Z,169.73
2023-04-10T08:54:04.781Z,186.73
2023-04-10T08:55:11.037Z,108.97
2023-04-10T08:56:18.515Z,165.65
2023-04-10T08:57:25.275Z,124.40
2023-04-10T08:58:30.426Z,152.77
2023-04-10T08:59:36.289Z,159.85
2023-04-10T09:00:43.186Z,176.27
2023-04-10T09:01:48.004Z,141.63
2023-04-10T09:02:58.875Z,175.25
2023-04-10T09:04:01.798Z,265.23
2023-04-10T09:05:08.215Z,190.75
2023-04-10T09:06:15.382Z,163.93
2023-04-10T09:07:23.683Z,259.70
2023-04-10T09:08:33.103Z,272.35
2023-04-10T09:09:38.895Z,350.45
2023-04-10T09:10:41.344Z,296.83
2023-04-10T09:12:04.277Z,283.98
2023-04-10T09:13:09.256Z,91.40
2023-04-10T09:14:25.318Z,94.43
2023-04-10T09:15:33.173Z,104.25
2023-04-10T09:16:41.964Z,105.55
2023-04-10T09:18:02.012Z,86.55
2023-04-10T09:19:08.316Z,108.00
2023-04-10T09:20:31.261Z,152.75
2023-04-10T09:21:37.971Z,161.38
2023-04-10T09:22:44.573Z,156.63
2023-04-10T09:24:03.632Z,169.80
2023-04-10T09:25:10.579Z,165.85
2023-04-10T09:26:28.109Z,144.45
2023-04-10T09:27:36.919Z,115.85
2023-04-10T09:29:03.355Z,140.48
2023-04-10T09:30:12.887Z,174.02
2023-04-10T09:31:32.859Z,206.50
2023-04-10T09:32:49.471Z,290.60
2023-04-10T09:34:14.876Z,247.25
2023-04-10T09:35:28.416Z,231.30
2023-04-10T09:36:34.159Z,272.77
2023-04-10T09:37:41.377Z,331.33
2023-04-10T09:38:58.953Z,213.38
2023-04-10T09:40:06.729Z,216.57
2023-04-10T09:41:14.590Z,215.88
2023-04-10T09:42:33.127Z,218.35
2023-04-10T09:43:39.799Z,207.25
2023-04-10T09:44:49.343Z,224.85
2023-04-10T09:46:00.057Z,203.68
2023-04-10T09:47:22.460Z,161.98
2023-04-10T09:48:30.599Z,167.80
2023-04-10T09:49:53.245Z,173.43
2023-04-10T09:50:57.265Z,169.38
2023-04-10T09:52:03.904Z,138.13
2023-04-10T09:53:07.963Z,149.30
2023-04-10T09:54:17.586Z,159.95
2023-04-10T09:55:25.810Z,141.38
2023-04-10T09:56:33.913Z,160.77
2023-04-10T09:57:41.314Z,164.25
2023-04-10T09:58:45.897Z,168.52
2023-04-10T09:59:55.980Z,131.40
2023-04-10T10:01:04.417Z,149.43
2023-04-10T10:02:21.895Z,156.55
2023-04-10T10:03:30.200Z,148.85
2023-04-10T10:04:35.312Z,163.07
2023-04-10T10:05:45.412Z,147.07
2023-04-10T10:06:50.787Z,143.60
2023-04-10T10:07:58.150Z,150.63
2023-04-10T10:09:07.623Z,143.70
2023-04-10T10:10:14.037Z,141.43
2023-04-10T10:11:26.668Z,159.80
2023-04-10T10:12:36.837Z,182.13
2023-04-10T10:13:55.560Z,218.60
2023-04-10T10:15:06.053Z,197.23
2023-04-10T10:16:23.549Z,197.27
2023-04-10T10:17:36.229Z,182.50
2023-04-10T10:18:49.952Z,210.20
2023-04-10T10:20:05.501Z,184.52
2023-04-10T10:21:18.013Z,169.93
2023-04-10T10:22:28.473Z,196.25
2023-04-10T10:23:42.424Z,218.15
2023-04-10T10:24:48.255Z,251.98
2023-04-10T10:26:04.072Z,244.07
2023-04-10T10:27:14.522Z,258.70
2023-04-10T10:28:19.602Z,212.82
2023-04-10T10:29:30.684Z,216.13
2023-04-10T10:30:40.748Z,240.52
2023-04-10T10:31:48.930Z,222.48
2023-04-10T10:32:53.455Z,200.25
2023-04-10T10:34:10.133Z,187.98
2023-04-10T10:35:14.244Z,183.32
2023-04-10T10:36:23.252Z,190.40
2023-04-10T10:37:29.637Z,215.35
2023-04-10T10:38:43.764Z,219.93
2023-04-10T10:40:01.718Z,202.48
2023-04-10T10:41:27.804Z,197.55
2023-04-10T10:42:50.716Z,196.32
2023-04-10T10:44:08.549Z,205.93
2023-04-10T10:45:27.293Z,210.85
2023-04-10T10:46:42.068Z,235.55
2023-04-10T10:47:53.988Z,223.43
2023-04-10T10:48:59.818Z,216.82
2023-04-10T10:50:07.250Z,230.50
2023-04-10T10:51:13.257Z,256.33
2023-04-10T10:52:16.062Z,221.70
2023-04-10T10:53:39.328Z,203.18
2023-04-10T10:54:53.555Z,213.68
2023-04-10T10:56:43.566Z,157.48
2023-04-10T10:57:47.426Z,205.63
2023-04-10T10:58:57.949Z,186.35
2023-04-10T11:00:03.354Z,164.70
2023-04-10T11:01:12.780Z,174.65
2023-04-10T11:02:18.645Z,149.63
2023-04-10T11:03:40.951Z,148.77
2023-04-10T11:04:48.158Z,157.68
2023-04-10T11:05:55.787Z,193.00
2023-04-10T11:07:05.290Z,190.30
2023-04-10T11:08:12.696Z,159.82
2023-04-10T11:09:52.326Z,158.10
2023-04-10T11:11:02.803Z,173.20
2023-04-10T11:12:13.002Z,170.95
2023-04-10T11:13:22.500Z,189.13
2023-04-10T11:14:30.660Z,158.57
2023-04-10T11:15:42.793Z,175.70
2023-04-10T11:16:54.324Z,190.57
2023-04-10T11:19:14.167Z,160.65
2023-04-10T11:20:27.765Z,218.80
2023-04-10T11:21:31.952Z,163.45
2023-04-10T11:23:13.717Z,172.05
2023-04-10T11:24:17.007Z,194.35
2023-04-10T11:25:49.415Z,212.80
2023-04-10T11:26:56.945Z,207.73
2023-04-10T11:28:06.332Z,161.63
2023-04-10T11:29:38.210Z,135.63
2023-04-10T11:30:44.183Z,158.88
2023-04-10T11:31:48.528Z,164.15
2023-04-10T11:32:54.809Z,154.98
2023-04-10T11:34:09.224Z,136.77
2023-04-10T11:35:23.933Z,155.10
2023-04-10T11:36:34.673Z,169.10
2023-04-10T11:37:40.478Z,155.55
2023-04-10T11:38:59.978Z,157.23
2023-04-10T11:40:28.098Z,137.80
2023-04-10T11:41:35.811Z,119.05
2023-04-10T11:42:50.275Z,142.40
2023-04-10T11:44:05.972Z,150.32
2023-04-10T11:45:33.295Z,137.20
2023-04-10T11:46:41.517Z,146.93
2023-04-10T11:47:52.177Z,135.98
2023-04-10T11:49:01.234Z,112.22
2023-04-10T11:50:21.860Z,106.50
2023-04-10T11:51:36.480Z,117.45
2023-04-10T11:52:42.646Z,130.32
2023-04-10T11:53:50.483Z,122.10
2023-04-10T11:54:59.901Z,105.53
2023-04-10T11:56:08.477Z,112.18
2023-04-10T11:57:19.614Z,108.47
2023-04-10T11:58:34.742Z,113.15
2023-04-10T11:59:43.764Z,141.23
2023-04-10T12:00:50.991Z,131.63
2023-04-10T12:02:07.155Z,122.93
2023-04-10T12:03:16.120Z,150.35
2023-04-10T12:04:27.379Z,127.55
2023-04-10T12:05:46.804Z,133.63
2023-04-10T12:07:02.266Z,154.90
2023-04-10T12:08:11.332Z,127.18
2023-04-10T12:09:19.775Z,150.68
2023-04-10T12:10:23.748Z,155.07
2023-04-10T12:11:30.756Z,160.75
2023-04-10T12:12:38.430Z,148.15
2023-04-10T12:13:49.591Z,157.15
2023-04-10T12:14:59.943Z,133.65
2023-04-10T12:16:05.734Z,152.13
2023-04-10T12:17:13.925Z,117.20
2023-04-10T12:18:18.287Z,124.95
2023-04-10T12:19:25.494Z,114.13
2023-04-10T12:20:31.429Z,110.18
2023-04-10T12:21:41.440Z,138.68
2023-04-10T12:22:47.652Z,196.13
2023-04-10T12:23:53.462Z,203.82
2023-04-10T12:24:57.045Z,226.85
2023-04-10T12:26:24.881Z,199.02
2023-04-10T12:27:35.530Z,181.93
2023-04-10T12:28:40.493Z,249.90
2023-04-10T12:29:46.642Z,249.98
2023-04-10T12:30:53.520Z,265.38
2023-04-10T12:32:11.704Z,195.13
2023-04-10T12:33:15.842Z,199.73
2023-04-10T12:34:23.182Z,224.60
2023-04-10T12:35:39.663Z,264.27
2023-04-10T12:36:57.207Z,273.70
2023-04-10T12:38:00.800Z,251.80
2023-04-10T12:39:10.363Z,288.45
2023-04-10T12:40:16.466Z,230.90
2023-04-10T12:41:27.717Z,230.05
2023-04-10T12:42:46.150Z,181.13
2023-04-10T12:44:00.135Z,216.68
2023-04-10T12:45:05.118Z,202.00
2023-04-10T12:46:27.796Z,201.63
2023-04-10T12:47:35.989Z,147.25
2023-04-10T12:48:42.480Z,173.88
2023-04-10T12:50:21.532Z,163.65
2023-04-10T12:51:52.110Z,156.35
2023-04-10T12:53:06.438Z,142.93
2023-04-10T12:54:13.740Z,136.63
2023-04-10T12:55:24.751Z,150.65
2023-04-10T12:56:54.567Z,124.22
2023-04-10T12:58:01.536Z,131.52
2023-04-10T12:59:12.647Z,101.30
2023-04-10T13:00:19.690Z,102.93
2023-04-10T13:01:38.655Z,90.60
2023-04-10T13:03:15.111Z,128.32
2023-04-10T13:04:27.256Z,127.97
2023-04-10T13:05:30.650Z,130.05
2023-04-10T13:06:48.862Z,130.48
2023-04-10T13:08:05.064Z,143.95
2023-04-10T13:09:12.504Z,121.75
2023-04-10T13:10:17.584Z,152.73
2023-04-10T13:11:19.814Z,171.57
2023-04-10T13:12:26.264Z,141.68
2023-04-10T13:13:33.045Z,130.02
2023-04-10T13:14:35.534Z,159.02
2023-04-10T13:15:41.138Z,165.43
2023-04-10T13:16:49.626Z,181.27
2023-04-10T13:17:52.020Z,163.27
2023-04-10T13:18:57.272Z,164.57
2023-04-10T13:20:01.917Z,146.25
2023-04-10T13:21:07.463Z,168.88
2023-04-10T13:22:09.696Z,155.00
2023-04-10T13:23:14.844Z,179.90
2023-04-10T13:24:17.681Z,220.70
2023-04-10T13:25:22.910Z,243.93
2023-04-10T13:26:28.518Z,235.85
2023-04-10T13:27:31.010Z,224.52
2023-04-10T13:28:39.820Z,209.98
2023-04-10T13:29:44.092Z,249.52
2023-04-10T13:30:50.162Z,207.02
2023-04-10T13:32:06.098Z,158.63
2023-04-10T13:33:12.010Z,156.27
2023-04-10T13:34:14.408Z,164.13
2023-04-10T13:35:19.714Z,162.88
2023-04-10T13:36:22.813Z,141.27
2023-04-10T13:37:28.181Z,145.35
2023-04-10T13:38:38.674Z,132.40
2023-04-10T13:39:44.084Z,136.38
2023-04-10T13:40:49.625Z,151.02
2023-04-10T13:41:55.396Z,158.98
2023-04-10T13:43:00.565Z,152.18
2023-04-10T13:44:04.515Z,153.90
2023-04-10T13:45:10.701Z,137.00
2023-04-10T13:46:15.823Z,141.25
2023-04-10T13:47:25.096Z,160.00
2023-04-10T13:48:39.814Z,146.75
2023-04-10T13:49:45.869Z,150.75
2023-04-10T13:50:51.361Z,175.95
2023-04-10T13:51:56.165Z,143.73
2023-04-10T13:53:01.234Z,135.25
2023-04-10T13:54:04.934Z,129.95
2023-04-10T13:55:11.365Z,111.07
2023-04-10T13:56:17.603Z,122.57
2023-04-10T13:57:22.125Z,121.45
2023-04-10T13:58:32.326Z,92.55
2023-04-10T13:59:39.945Z,96.38
2023-04-10T14:00:48.711Z,161.75
2023-04-10T14:01:52.845Z,114.43
2023-04-10T14:03:01.902Z,132.00
2023-04-10T14:04:07.390Z,109.10
2023-04-10T14:05:14.247Z,102.40
2023-04-10T14:06:16.514Z,114.70
2023-04-10T14:07:22.020Z,108.82
2023-04-10T14:08:28.106Z,94.80
2023-04-10T14:09:30.893Z,89.28
2023-04-10T14:10:36.020Z,80.28
2023-04-10T14:11:38.793Z,85.72
2023-04-10T14:12:43.764Z,75.63
2023-04-10T14:13:46.157Z,95.90
2023-04-10T14:14:51.099Z,95.25
2023-04-10T14:15:53.949Z,87.82
2023-04-10T14:16:59.155Z,91.82
2023-04-10T14:18:04.311Z,71.50
2023-04-10T14:19:09.402Z,67.28
2023-04-10T14:20:14.673Z,77.15
2023-04-10T14:21:20.728Z,76.15
2023-04-10T14:22:25.927Z,94.57
2023-04-10T14:23:28.828Z,95.05
2023-04-10T14:24:34.035Z,117.80
2023-04-10T14:25:40.343Z,78.05
2023-04-10T14:26:42.674Z,88.20
2023-04-10T14:27:48.226Z,104.88
2023-04-10T14:28:50.381Z,90.90
2023-04-10T14:29:56.024Z,105.10
2023-04-10T14:30:58.359Z,109.45
2023-04-10T14:32:03.895Z,78.30
2023-04-10T14:33:08.836Z,75.75
2023-04-10T14:34:14.392Z,105.50
2023-04-10T14:35:16.780Z,83.13
2023-04-10T14:36:21.912Z,88.03
2023-04-10T14:37:24.068Z,94.70
2023-04-10T14:38:29.075Z,67.07
2023-04-10T14:39:31.642Z,72.80
2023-04-10T14:40:38.047Z,83.07
2023-04-10T14:41:40.979Z,82.10
2023-04-10T14:42:47.331Z,101.35
2023-04-10T14:43:52.512Z,128.02
2023-04-10T14:44:59.290Z,127.18
2023-04-10T14:46:03.609Z,129.15
2023-04-10T14:47:09.377Z,102.60
2023-04-10T14:48:14.646Z,115.70
2023-04-10T14:49:21.698Z,129.65
2023-04-10T14:50:23.944Z,78.82
2023-04-10T14:51:29.065Z,93.57
2023-04-10T14:52:33.919Z,133.35
2023-04-10T14:53:36.053Z,112.63
2023-04-10T14:54:42.875Z,116.90
2023-04-10T14:55:47.731Z,117.35
2023-04-10T14:56:52.759Z,123.88